PWSweather.com
Personal Weather Stations
Station Observations
79674
AfterstegDE 79674

AfterstegDE 79674

Lat: 47.84344, Lon: 7.92844

Elevation: 809

Station Type: Davis Vantage 2 Aktive

Latest ConditionsUpdated 11:17:08 AM GMT+01:01 Saturday, Oct 1, 2016
Currently Today's Max Today's Min Today's Average
Temperature 59.7°F15.4°C 61.2°F16.2°C 52.0°F11.1°C 55.1°F12.8°C
Dew Point 52.2°F11.2°C 52.2°F11.2°C 48.9°F9.4°C 50.1°F10.1°C
Winds 0.9 mph SSE1.4 kmh SSE 6.9 mph SE11.1 kmh SE - 2.1 mph 3.4 kmh
Wind Gusts 4.9 mph7.9 kmh 15.0 mph24.1 kmh - -
Humidity 76% 90% 70% 84%
Pressure 29.89 in1012.2 mb 29.93 in1013.5 mb 29.87 in1011.5 mb -
Hour Temp Dew Point Humidity Winds Wind Gusts Pressure Precip Precip Rate Daily Precip Total
11:17 AM 59.7°F15.4°C 52.2°F11.2°C 76% 0.9 mph SSE1.4 kmh SSE 4.9 mph7.9 kmh 29.89 in1012.2 mb - 0.00 in0.0 mm 0.00 in0.0 mm
11:12 AM 59.4°F15.2°C 51.4°F10.8°C 75% 2.0 mph SW3.2 kmh SW -- 29.89 in1012.2 mb - 0.00 in0.0 mm 0.00 in0.0 mm
11:07 AM 59.4°F15.2°C 51.1°F10.6°C 74% 4.0 mph NE6.4 kmh NE 0.9 mph1.4 kmh 29.89 in1012.2 mb - 0.00 in0.0 mm 0.00 in0.0 mm
11:02 AM 59.5°F15.3°C 50.9°F10.5°C 73% 4.9 mph E7.9 kmh E 2.0 mph3.2 kmh 29.89 in1012.2 mb - 0.00 in0.0 mm 0.00 in0.0 mm
10:57 AM 59.7°F15.4°C 51.4°F10.8°C 74% 4.0 mph SE6.4 kmh SE 6.0 mph9.7 kmh 29.88 in1011.9 mb - 0.00 in0.0 mm 0.00 in0.0 mm
10:52 AM 60.1°F15.6°C 51.8°F11.0°C 74% 4.0 mph SE6.4 kmh SE 4.9 mph7.9 kmh 29.88 in1011.9 mb - 0.00 in0.0 mm 0.00 in0.0 mm
10:47 AM 60.3°F15.7°C 51.3°F10.7°C 72% 4.0 mph SE6.4 kmh SE 4.0 mph6.4 kmh 29.88 in1011.9 mb - 0.00 in0.0 mm 0.00 in0.0 mm
10:42 AM 60.4°F15.8°C 51.4°F10.8°C 72% 6.0 mph SE9.7 kmh SE 4.9 mph7.9 kmh 29.88 in1011.9 mb - 0.00 in0.0 mm 0.00 in0.0 mm
10:37 AM 60.6°F15.9°C 50.7°F10.4°C 70% 4.9 mph E7.9 kmh E 15.0 mph24.1 kmh 29.88 in1011.9 mb - 0.00 in0.0 mm 0.00 in0.0 mm
10:32 AM 61.0°F16.1°C 51.1°F10.6°C 70% 4.0 mph SSE6.4 kmh SSE 8.9 mph14.3 kmh 29.89 in1012.2 mb - 0.00 in0.0 mm 0.00 in0.0 mm
10:27 AM 61.2°F16.2°C 52.0°F11.1°C 72% 4.0 mph SE6.4 kmh SE 4.9 mph7.9 kmh 29.88 in1011.9 mb - 0.00 in0.0 mm 0.00 in0.0 mm
10:22 AM 60.3°F15.7°C 51.6°F10.9°C 73% 6.0 mph SE9.7 kmh SE 2.9 mph4.7 kmh 29.88 in1011.9 mb - 0.00 in0.0 mm 0.00 in0.0 mm
10:17 AM 60.3°F15.7°C 51.3°F10.7°C 72% 6.9 mph E11.1 kmh E 2.9 mph4.7 kmh 29.88 in1011.9 mb - 0.00 in0.0 mm 0.00 in0.0 mm
10:12 AM 60.3°F15.7°C 51.3°F10.7°C 72% 6.0 mph ESE9.7 kmh ESE 15.0 mph24.1 kmh 29.88 in1011.9 mb - 0.00 in0.0 mm 0.00 in0.0 mm
10:07 AM 60.3°F15.7°C 51.3°F10.7°C 72% 6.0 mph SE9.7 kmh SE 4.0 mph6.4 kmh 29.88 in1011.9 mb - 0.00 in0.0 mm 0.00 in0.0 mm
10:02 AM 60.1°F15.6°C 51.4°F10.8°C 73% 4.9 mph ESE7.9 kmh ESE 4.9 mph7.9 kmh 29.88 in1011.9 mb - 0.00 in0.0 mm 0.00 in0.0 mm
09:57 AM 60.1°F15.6°C 51.1°F10.6°C 72% 6.0 mph S9.7 kmh S 4.0 mph6.4 kmh 29.88 in1011.9 mb - 0.00 in0.0 mm 0.00 in0.0 mm
09:52 AM 59.7°F15.4°C 51.4°F10.8°C 74% 4.9 mph SSE7.9 kmh SSE 2.9 mph4.7 kmh 29.88 in1011.9 mb - 0.00 in0.0 mm 0.00 in0.0 mm
09:47 AM 59.5°F15.3°C 51.3°F10.7°C 74% 4.0 mph SE6.4 kmh SE 2.9 mph4.7 kmh 29.88 in1011.9 mb - 0.00 in0.0 mm 0.00 in0.0 mm
09:42 AM 59.4°F15.2°C 51.1°F10.6°C 74% 4.9 mph SE7.9 kmh SE 4.9 mph7.9 kmh 29.88 in1011.9 mb - 0.00 in0.0 mm 0.00 in0.0 mm
09:37 AM 58.8°F14.9°C 50.5°F10.3°C 74% 4.9 mph SE7.9 kmh SE 6.0 mph9.7 kmh 29.88 in1011.9 mb - 0.00 in0.0 mm 0.00 in0.0 mm
09:32 AM 58.8°F14.9°C 50.5°F10.3°C 74% 4.9 mph SE7.9 kmh SE 4.0 mph6.4 kmh 29.88 in1011.9 mb - 0.00 in0.0 mm 0.00 in0.0 mm
09:27 AM 58.6°F14.8°C 50.7°F10.4°C 75% 6.0 mph SSE9.7 kmh SSE 2.9 mph4.7 kmh 29.88 in1011.9 mb - 0.00 in0.0 mm 0.00 in0.0 mm
09:22 AM 58.5°F14.7°C 50.5°F10.3°C 75% 6.0 mph SE9.7 kmh SE 4.9 mph7.9 kmh 29.88 in1011.9 mb - 0.00 in0.0 mm 0.00 in0.0 mm
09:17 AM 58.5°F14.7°C 50.5°F10.3°C 75% 6.0 mph E9.7 kmh E 4.9 mph7.9 kmh 29.88 in1011.9 mb - 0.00 in0.0 mm 0.00 in0.0 mm
09:12 AM 58.5°F14.7°C 50.5°F10.3°C 75% 6.0 mph SE9.7 kmh SE 6.9 mph11.1 kmh 29.88 in1011.9 mb - 0.00 in0.0 mm 0.00 in0.0 mm
09:07 AM 58.5°F14.7°C 50.5°F10.3°C 75% 4.9 mph SE7.9 kmh SE 8.1 mph13.0 kmh 29.87 in1011.5 mb - 0.00 in0.0 mm 0.00 in0.0 mm
09:02 AM 58.3°F14.6°C 50.7°F10.4°C 76% 4.9 mph ESE7.9 kmh ESE 2.0 mph3.2 kmh 29.88 in1011.9 mb - 0.00 in0.0 mm 0.00 in0.0 mm
08:57 AM 58.1°F14.5°C 50.5°F10.3°C 76% 4.9 mph ESE7.9 kmh ESE 4.0 mph6.4 kmh 29.87 in1011.5 mb - 0.00 in0.0 mm 0.00 in0.0 mm
08:52 AM 58.1°F14.5°C 50.5°F10.3°C 76% 4.9 mph SE7.9 kmh SE 6.0 mph9.7 kmh 29.87 in1011.5 mb - 0.00 in0.0 mm 0.00 in0.0 mm
08:47 AM 58.3°F14.6°C 50.7°F10.4°C 76% 6.0 mph SE9.7 kmh SE 4.0 mph6.4 kmh 29.88 in1011.9 mb - 0.00 in0.0 mm 0.00 in0.0 mm
08:42 AM 58.3°F14.6°C 50.4°F10.2°C 75% 6.9 mph SSE11.1 kmh SSE 2.9 mph4.7 kmh 29.87 in1011.5 mb - 0.00 in0.0 mm 0.00 in0.0 mm
08:37 AM 58.3°F14.6°C 50.4°F10.2°C 75% 6.9 mph ENE11.1 kmh ENE 8.1 mph13.0 kmh 29.87 in1011.5 mb - 0.00 in0.0 mm 0.00 in0.0 mm
08:32 AM 58.3°F14.6°C 50.4°F10.2°C 75% 6.0 mph ESE9.7 kmh ESE 4.0 mph6.4 kmh 29.87 in1011.5 mb - 0.00 in0.0 mm 0.00 in0.0 mm
08:27 AM 58.1°F14.5°C 50.2°F10.1°C 75% 4.9 mph E7.9 kmh E 4.9 mph7.9 kmh 29.87 in1011.5 mb - 0.00 in0.0 mm 0.00 in0.0 mm
08:22 AM 58.1°F14.5°C 50.2°F10.1°C 75% 4.9 mph S7.9 kmh S 2.9 mph4.7 kmh 29.88 in1011.9 mb - 0.00 in0.0 mm 0.00 in0.0 mm
08:17 AM 57.7°F14.3°C 50.2°F10.1°C 76% 4.9 mph SE7.9 kmh SE 6.0 mph9.7 kmh 29.87 in1011.5 mb - 0.00 in0.0 mm 0.00 in0.0 mm
08:12 AM 57.6°F14.2°C 50.4°F10.2°C 77% 6.0 mph SSE9.7 kmh SSE 2.9 mph4.7 kmh 29.88 in1011.9 mb - 0.00 in0.0 mm 0.00 in0.0 mm
08:07 AM 57.6°F14.2°C 50.4°F10.2°C 77% 6.0 mph SE9.7 kmh SE 4.0 mph6.4 kmh 29.87 in1011.5 mb - 0.00 in0.0 mm 0.00 in0.0 mm
08:02 AM 57.6°F14.2°C 50.7°F10.4°C 78% 4.9 mph ESE7.9 kmh ESE 11.0 mph17.7 kmh 29.87 in1011.5 mb - 0.00 in0.0 mm 0.00 in0.0 mm
07:57 AM 57.4°F14.1°C 50.5°F10.3°C 78% 6.9 mph SE11.1 kmh SE 8.1 mph13.0 kmh 29.87 in1011.5 mb - 0.00 in0.0 mm 0.00 in0.0 mm
07:52 AM 57.0°F13.9°C 50.5°F10.3°C 79% 6.0 mph SE9.7 kmh SE 6.0 mph9.7 kmh 29.87 in1011.5 mb - 0.00 in0.0 mm 0.00 in0.0 mm
07:47 AM 56.7°F13.7°C 50.5°F10.3°C 80% 4.9 mph ESE7.9 kmh ESE 8.1 mph13.0 kmh 29.87 in1011.5 mb - 0.00 in0.0 mm 0.00 in0.0 mm
07:42 AM 56.5°F13.6°C 50.4°F10.2°C 80% 4.0 mph E6.4 kmh E 2.9 mph4.7 kmh 29.87 in1011.5 mb - 0.00 in0.0 mm 0.00 in0.0 mm
07:37 AM 56.7°F13.7°C 50.2°F10.1°C 79% 4.0 mph SE6.4 kmh SE 4.0 mph6.4 kmh 29.88 in1011.9 mb - 0.00 in0.0 mm 0.00 in0.0 mm
07:32 AM 56.7°F13.7°C 50.5°F10.3°C 80% 4.0 mph SE6.4 kmh SE 6.9 mph11.1 kmh 29.87 in1011.5 mb - 0.00 in0.0 mm 0.00 in0.0 mm
07:27 AM 56.3°F13.5°C 50.5°F10.3°C 81% 4.9 mph SE7.9 kmh SE 2.9 mph4.7 kmh 29.87 in1011.5 mb - 0.00 in0.0 mm 0.00 in0.0 mm
07:22 AM 55.8°F13.2°C 50.7°F10.4°C 83% 4.0 mph ESE6.4 kmh ESE 8.1 mph13.0 kmh 29.87 in1011.5 mb - 0.00 in0.0 mm 0.00 in0.0 mm
07:17 AM 54.3°F12.4°C 49.8°F9.9°C 85% 0.9 mph SE1.4 kmh SE 4.9 mph7.9 kmh 29.87 in1011.5 mb - 0.00 in0.0 mm 0.00 in0.0 mm
07:12 AM 54.1°F12.3°C 49.8°F9.9°C 85% 0.9 mph E1.4 kmh E 2.0 mph3.2 kmh 29.88 in1011.9 mb - 0.00 in0.0 mm 0.00 in0.0 mm
07:07 AM 54.0°F12.2°C 49.6°F9.8°C 85% 2.0 mph ESE3.2 kmh ESE -- 29.87 in1011.5 mb - 0.00 in0.0 mm 0.00 in0.0 mm
07:02 AM 53.6°F12.0°C 49.5°F9.7°C 86% 2.0 mph SW3.2 kmh SW 2.0 mph3.2 kmh 29.88 in1011.9 mb - 0.00 in0.0 mm 0.00 in0.0 mm
06:57 AM 53.2°F11.8°C 49.1°F9.5°C 86% 0.9 mph NW1.4 kmh NW -- 29.87 in1011.5 mb - 0.00 in0.0 mm 0.00 in0.0 mm
06:52 AM 53.4°F11.9°C 49.6°F9.8°C 87% 2.0 mph WNW3.2 kmh WNW -- 29.87 in1011.5 mb - 0.00 in0.0 mm 0.00 in0.0 mm
06:47 AM 53.1°F11.7°C 49.3°F9.6°C 87% 2.0 mph NW3.2 kmh NW -- 29.88 in1011.9 mb - 0.00 in0.0 mm 0.00 in0.0 mm
06:42 AM 52.9°F11.6°C 49.1°F9.5°C 87% 0.9 mph NE1.4 kmh NE 4.0 mph6.4 kmh 29.87 in1011.5 mb - 0.00 in0.0 mm 0.00 in0.0 mm
06:37 AM 52.7°F11.5°C 49.3°F9.6°C 88% 0.9 mph NW1.4 kmh NW 2.9 mph4.7 kmh 29.87 in1011.5 mb - 0.00 in0.0 mm 0.00 in0.0 mm
06:32 AM 52.5°F11.4°C 49.1°F9.5°C 88% 2.0 mph NW3.2 kmh NW -- 29.87 in1011.5 mb - 0.00 in0.0 mm 0.00 in0.0 mm
06:27 AM 52.7°F11.5°C 49.5°F9.7°C 89% 2.0 mph SE3.2 kmh SE -- 29.87 in1011.5 mb - 0.00 in0.0 mm 0.00 in0.0 mm
06:22 AM 52.3°F11.3°C 49.3°F9.6°C 89% 0.9 mph N1.4 kmh N 2.0 mph3.2 kmh 29.87 in1011.5 mb - 0.00 in0.0 mm 0.00 in0.0 mm
06:17 AM 52.0°F11.1°C 48.9°F9.4°C 89% 0.9 mph NNW1.4 kmh NNW 2.0 mph3.2 kmh 29.87 in1011.5 mb - 0.00 in0.0 mm 0.00 in0.0 mm
06:12 AM 52.0°F11.1°C 49.1°F9.5°C 90% 0.9 mph NE1.4 kmh NE -- 29.87 in1011.5 mb - 0.00 in0.0 mm 0.00 in0.0 mm
06:07 AM 52.2°F11.2°C 49.1°F9.5°C 89% 2.0 mph N3.2 kmh N 2.9 mph4.7 kmh 29.88 in1011.9 mb - 0.00 in0.0 mm 0.00 in0.0 mm
06:02 AM 52.2°F11.2°C 49.3°F9.6°C 90% 0.9 mph SE1.4 kmh SE 0.9 mph1.4 kmh 29.87 in1011.5 mb - 0.00 in0.0 mm 0.00 in0.0 mm
05:57 AM 52.2°F11.2°C 49.3°F9.6°C 90% 0.9 mph NW1.4 kmh NW -- 29.87 in1011.5 mb - 0.00 in0.0 mm 0.00 in0.0 mm
05:52 AM 52.2°F11.2°C 49.1°F9.5°C 89% 0.9 mph NW1.4 kmh NW 0.9 mph1.4 kmh 29.87 in1011.5 mb - 0.00 in0.0 mm 0.00 in0.0 mm
05:47 AM 52.2°F11.2°C 49.3°F9.6°C 90% Calm Calm -- 29.87 in1011.5 mb - 0.00 in0.0 mm 0.00 in0.0 mm
05:42 AM 52.2°F11.2°C 49.1°F9.5°C 89% Calm Calm -- 29.87 in1011.5 mb - 0.00 in0.0 mm 0.00 in0.0 mm
05:37 AM 52.3°F11.3°C 49.5°F9.7°C 90% Calm Calm -- 29.87 in1011.5 mb - 0.00 in0.0 mm 0.00 in0.0 mm
05:32 AM 52.0°F11.1°C 49.1°F9.5°C 90% Calm Calm -- 29.87 in1011.5 mb - 0.00 in0.0 mm 0.00 in0.0 mm
05:27 AM 52.2°F11.2°C 49.1°F9.5°C 89% Calm Calm -- 29.87 in1011.5 mb - 0.00 in0.0 mm 0.00 in0.0 mm
05:22 AM 52.3°F11.3°C 49.3°F9.6°C 89% Calm Calm -- 29.87 in1011.5 mb - 0.00 in0.0 mm 0.00 in0.0 mm
05:17 AM 52.3°F11.3°C 49.3°F9.6°C 89% Calm Calm -- 29.88 in1011.9 mb - 0.00 in0.0 mm 0.00 in0.0 mm
05:12 AM 52.5°F11.4°C 49.6°F9.8°C 90% Calm Calm -- 29.88 in1011.9 mb - 0.00 in0.0 mm 0.00 in0.0 mm
05:07 AM 52.3°F11.3°C 49.5°F9.7°C 90% Calm Calm -- 29.88 in1011.9 mb - 0.00 in0.0 mm 0.00 in0.0 mm
05:02 AM 52.3°F11.3°C 49.5°F9.7°C 90% Calm Calm -- 29.88 in1011.9 mb - 0.00 in0.0 mm 0.00 in0.0 mm
04:57 AM 52.2°F11.2°C 49.3°F9.6°C 90% Calm Calm -- 29.88 in1011.9 mb - 0.00 in0.0 mm 0.00 in0.0 mm
04:52 AM 52.3°F11.3°C 49.5°F9.7°C 90% Calm Calm -- 29.88 in1011.9 mb - 0.00 in0.0 mm 0.00 in0.0 mm
04:47 AM 52.2°F11.2°C 49.3°F9.6°C 90% Calm Calm -- 29.88 in1011.9 mb - 0.00 in0.0 mm 0.00 in0.0 mm
04:42 AM 52.3°F11.3°C 49.5°F9.7°C 90% Calm Calm -- 29.88 in1011.9 mb - 0.00 in0.0 mm 0.00 in0.0 mm
04:37 AM 52.5°F11.4°C 49.5°F9.7°C 89% Calm Calm -- 29.88 in1011.9 mb - 0.00 in0.0 mm 0.00 in0.0 mm
04:32 AM 52.5°F11.4°C 49.6°F9.8°C 90% Calm Calm -- 29.88 in1011.9 mb - 0.00 in0.0 mm 0.00 in0.0 mm
04:27 AM 52.5°F11.4°C 49.6°F9.8°C 90% Calm Calm -- 29.88 in1011.9 mb - 0.00 in0.0 mm 0.00 in0.0 mm
04:22 AM 52.3°F11.3°C 49.5°F9.7°C 90% Calm Calm -- 29.88 in1011.9 mb - 0.00 in0.0 mm 0.00 in0.0 mm
04:17 AM 52.5°F11.4°C 49.6°F9.8°C 90% Calm Calm -- 29.88 in1011.9 mb - 0.00 in0.0 mm 0.00 in0.0 mm
04:12 AM 52.5°F11.4°C 49.6°F9.8°C 90% Calm Calm -- 29.88 in1011.9 mb - 0.00 in0.0 mm 0.00 in0.0 mm
04:07 AM 52.7°F11.5°C 49.5°F9.7°C 89% Calm Calm -- 29.88 in1011.9 mb - 0.00 in0.0 mm 0.00 in0.0 mm
04:02 AM 52.7°F11.5°C 49.5°F9.7°C 89% Calm Calm -- 29.88 in1011.9 mb - 0.00 in0.0 mm 0.00 in0.0 mm
03:57 AM 52.9°F11.6°C 49.6°F9.8°C 89% Calm Calm -- 29.88 in1011.9 mb - 0.00 in0.0 mm 0.00 in0.0 mm
03:52 AM 53.1°F11.7°C 49.8°F9.9°C 89% Calm Calm -- 29.88 in1011.9 mb - 0.00 in0.0 mm 0.00 in0.0 mm
03:47 AM 53.1°F11.7°C 49.8°F9.9°C 89% Calm Calm -- 29.88 in1011.9 mb - 0.00 in0.0 mm 0.00 in0.0 mm
03:42 AM 53.1°F11.7°C 49.8°F9.9°C 89% Calm Calm -- 29.88 in1011.9 mb - 0.00 in0.0 mm 0.00 in0.0 mm
03:37 AM 53.1°F11.7°C 49.8°F9.9°C 89% Calm Calm -- 29.88 in1011.9 mb - 0.00 in0.0 mm 0.00 in0.0 mm
03:32 AM 53.1°F11.7°C 49.8°F9.9°C 89% Calm Calm -- 29.89 in1012.2 mb - 0.00 in0.0 mm 0.00 in0.0 mm
03:27 AM 53.2°F11.8°C 50.0°F10.0°C 89% Calm Calm -- 29.89 in1012.2 mb - 0.00 in0.0 mm 0.00 in0.0 mm
03:22 AM 53.4°F11.9°C 50.2°F10.1°C 89% Calm Calm -- 29.89 in1012.2 mb - 0.00 in0.0 mm 0.00 in0.0 mm
03:17 AM 53.2°F11.8°C 50.0°F10.0°C 89% Calm Calm -- 29.89 in1012.2 mb - 0.00 in0.0 mm 0.00 in0.0 mm
03:12 AM 53.1°F11.7°C 49.8°F9.9°C 89% Calm Calm -- 29.89 in1012.2 mb - 0.00 in0.0 mm 0.00 in0.0 mm
03:07 AM 53.2°F11.8°C 50.0°F10.0°C 89% Calm Calm -- 29.89 in1012.2 mb - 0.00 in0.0 mm 0.00 in0.0 mm
03:02 AM 53.1°F11.7°C 50.2°F10.1°C 90% Calm Calm -- 29.89 in1012.2 mb - 0.00 in0.0 mm 0.00 in0.0 mm
02:57 AM 52.9°F11.6°C 50.0°F10.0°C 90% Calm Calm -- 29.89 in1012.2 mb - 0.00 in0.0 mm 0.00 in0.0 mm
02:52 AM 52.7°F11.5°C 49.8°F9.9°C 90% Calm Calm -- 29.90 in1012.5 mb - 0.00 in0.0 mm 0.00 in0.0 mm
02:47 AM 53.1°F11.7°C 50.2°F10.1°C 90% Calm Calm -- 29.90 in1012.5 mb - 0.00 in0.0 mm 0.00 in0.0 mm
02:42 AM 52.9°F11.6°C 50.0°F10.0°C 90% Calm Calm -- 29.89 in1012.2 mb - 0.00 in0.0 mm 0.00 in0.0 mm
02:37 AM 52.9°F11.6°C 50.0°F10.0°C 90% Calm Calm -- 29.90 in1012.5 mb - 0.00 in0.0 mm 0.00 in0.0 mm
02:32 AM 52.7°F11.5°C 49.8°F9.9°C 90% Calm Calm -- 29.90 in1012.5 mb - 0.00 in0.0 mm 0.00 in0.0 mm
02:27 AM 52.5°F11.4°C 49.6°F9.8°C 90% Calm Calm -- 29.90 in1012.5 mb - 0.00 in0.0 mm 0.00 in0.0 mm
02:22 AM 52.9°F11.6°C 50.0°F10.0°C 90% Calm Calm -- 29.90 in1012.5 mb - 0.00 in0.0 mm 0.00 in0.0 mm
02:17 AM 52.5°F11.4°C 49.6°F9.8°C 90% Calm Calm -- 29.90 in1012.5 mb - 0.00 in0.0 mm 0.00 in0.0 mm
02:12 AM 52.3°F11.3°C 49.5°F9.7°C 90% Calm Calm -- 29.90 in1012.5 mb - 0.00 in0.0 mm 0.00 in0.0 mm
02:07 AM 52.3°F11.3°C 49.5°F9.7°C 90% Calm Calm -- 29.90 in1012.5 mb - 0.00 in0.0 mm 0.00 in0.0 mm
02:02 AM 52.5°F11.4°C 49.5°F9.7°C 89% Calm Calm -- 29.91 in1012.9 mb - 0.00 in0.0 mm 0.00 in0.0 mm
01:57 AM 52.5°F11.4°C 49.5°F9.7°C 89% Calm Calm -- 29.91 in1012.9 mb - 0.00 in0.0 mm 0.00 in0.0 mm
01:52 AM 52.9°F11.6°C 49.6°F9.8°C 89% Calm Calm -- 29.91 in1012.9 mb - 0.00 in0.0 mm 0.00 in0.0 mm
01:47 AM 53.1°F11.7°C 49.8°F9.9°C 89% Calm Calm -- 29.91 in1012.9 mb - 0.00 in0.0 mm 0.00 in0.0 mm
01:42 AM 53.1°F11.7°C 49.8°F9.9°C 89% Calm Calm -- 29.92 in1013.2 mb - 0.00 in0.0 mm 0.00 in0.0 mm
01:37 AM 53.2°F11.8°C 50.0°F10.0°C 89% Calm Calm -- 29.92 in1013.2 mb - 0.00 in0.0 mm 0.00 in0.0 mm
01:32 AM 53.1°F11.7°C 50.2°F10.1°C 90% Calm Calm -- 29.92 in1013.2 mb - 0.00 in0.0 mm 0.00 in0.0 mm
01:27 AM 53.2°F11.8°C 50.0°F10.0°C 89% Calm Calm -- 29.92 in1013.2 mb - 0.00 in0.0 mm 0.00 in0.0 mm
01:22 AM 53.1°F11.7°C 50.2°F10.1°C 90% Calm Calm -- 29.92 in1013.2 mb - 0.00 in0.0 mm 0.00 in0.0 mm
01:17 AM 53.1°F11.7°C 50.2°F10.1°C 90% Calm Calm -- 29.92 in1013.2 mb - 0.00 in0.0 mm 0.00 in0.0 mm
01:12 AM 53.2°F11.8°C 50.0°F10.0°C 89% Calm Calm -- 29.92 in1013.2 mb - 0.00 in0.0 mm 0.00 in0.0 mm
01:07 AM 53.2°F11.8°C 50.0°F10.0°C 89% Calm Calm -- 29.92 in1013.2 mb - 0.00 in0.0 mm 0.00 in0.0 mm
01:02 AM 53.4°F11.9°C 50.2°F10.1°C 89% Calm Calm -- 29.93 in1013.5 mb - 0.00 in0.0 mm 0.00 in0.0 mm
12:57 AM 53.4°F11.9°C 50.0°F10.0°C 88% Calm Calm -- 29.93 in1013.5 mb - 0.00 in0.0 mm 0.00 in0.0 mm
12:52 AM 53.8°F12.1°C 50.4°F10.2°C 88% Calm Calm -- 29.93 in1013.5 mb - 0.00 in0.0 mm 0.00 in0.0 mm
12:47 AM 54.0°F12.2°C 50.5°F10.3°C 88% Calm Calm -- 29.93 in1013.5 mb - 0.00 in0.0 mm 0.00 in0.0 mm
12:42 AM 54.1°F12.3°C 50.7°F10.4°C 88% 0.9 mph ENE1.4 kmh ENE -- 29.93 in1013.5 mb - 0.00 in0.0 mm 0.00 in0.0 mm
12:37 AM 54.1°F12.3°C 50.7°F10.4°C 88% Calm Calm -- 29.93 in1013.5 mb - 0.00 in0.0 mm 0.00 in0.0 mm
12:32 AM 54.1°F12.3°C 50.7°F10.4°C 88% Calm Calm -- 29.93 in1013.5 mb - 0.00 in0.0 mm 0.00 in0.0 mm
12:27 AM 54.0°F12.2°C 50.7°F10.4°C 89% Calm Calm -- 29.93 in1013.5 mb - 0.00 in0.0 mm 0.00 in0.0 mm
12:22 AM 54.0°F12.2°C 50.5°F10.3°C 88% Calm Calm -- 29.93 in1013.5 mb - 0.00 in0.0 mm 0.00 in0.0 mm
12:17 AM 54.0°F12.2°C 50.7°F10.4°C 89% Calm Calm -- 29.93 in1013.5 mb - 0.00 in0.0 mm 0.00 in0.0 mm
12:12 AM 54.0°F12.2°C 50.7°F10.4°C 89% Calm Calm -- 29.94 in1013.9 mb - 0.00 in0.0 mm 0.00 in0.0 mm
12:07 AM 54.0°F12.2°C 50.7°F10.4°C 89% Calm Calm -- 29.93 in1013.5 mb - 0.00 in0.0 mm 0.00 in0.0 mm
12:02 AM 54.1°F12.3°C 50.9°F10.5°C 89% Calm Calm -- 29.94 in1013.9 mb - 0.00 in0.0 mm 0.00 in0.0 mm